In Rescue
 
Open Full Screen Window  High Contrast Mode
Wind Gusting 00 knots
04
August 19, 2022 5:11 AM CDT
Weather Information
Wind Direction
  200 °
Wind Speed
  04 kt (5 mph)
Wind Gust
  00 kt (0 mph)
Altimeter
29.82 in
Visibility
10 SM
Temperature
16° C
61° F
Dewpoint
15° C
59° F
Humidity
94%
1hr Rain Fall
00.00 in.
24hr Rain Fall
00.00 in.
Sky Condition
Missing
VFR

METAR KJYG 191011Z AUTO 20004KT 10SM 16/15 A2982 RMK AO2 TSNO

FAA Disclaimer: The data displayed is for advisory purposes only and is not to be used for flight planning or operations.
Missing Cloud Data